sensor_id;sensor_type;location;lat;lon;timestamp;P1;durP1;ratioP1;P2;durP2;ratioP2
41556;SDS011;27720;51.992;5.890;2023-05-20T00:01:29;2.60;;;0.82;;
41556;SDS011;27720;51.992;5.890;2023-05-20T00:03:54;1.50;;;0.85;;
41556;SDS011;27720;51.992;5.890;2023-05-20T00:06:21;3.63;;;0.95;;
41556;SDS011;27720;51.992;5.890;2023-05-20T00:08:47;6.88;;;1.17;;
41556;SDS011;27720;51.992;5.890;2023-05-20T00:11:13;1.83;;;0.70;;
41556;SDS011;27720;51.992;5.890;2023-05-20T00:13:38;1.80;;;1.23;;
41556;SDS011;27720;51.992;5.890;2023-05-20T00:16:04;2.10;;;0.95;;
41556;SDS011;27720;51.992;5.890;2023-05-20T00:18:30;2.97;;;1.00;;
41556;SDS011;27720;51.992;5.890;2023-05-20T00:20:57;1.63;;;0.73;;
41556;SDS011;27720;51.992;5.890;2023-05-20T00:23:22;2.50;;;0.98;;
41556;SDS011;27720;51.992;5.890;2023-05-20T00:25:48;2.22;;;0.80;;
41556;SDS011;27720;51.992;5.890;2023-05-20T00:28:14;3.08;;;1.05;;
41556;SDS011;27720;51.992;5.890;2023-05-20T00:30:40;2.60;;;1.25;;
41556;SDS011;27720;51.992;5.890;2023-05-20T00:33:06;1.77;;;0.90;;
41556;SDS011;27720;51.992;5.890;2023-05-20T00:35:32;7.82;;;1.25;;
41556;SDS011;27720;51.992;5.890;2023-05-20T00:37:58;4.13;;;1.20;;
41556;SDS011;27720;51.992;5.890;2023-05-20T00:40:23;4.03;;;1.33;;
41556;SDS011;27720;51.992;5.890;2023-05-20T00:42:49;3.92;;;1.23;;
41556;SDS011;27720;51.992;5.890;2023-05-20T00:45:15;2.47;;;1.20;;
41556;SDS011;27720;51.992;5.890;2023-05-20T00:47:41;2.33;;;1.00;;
41556;SDS011;27720;51.992;5.890;2023-05-20T00:50:08;5.45;;;1.45;;
41556;SDS011;27720;51.992;5.890;2023-05-20T00:52:34;2.05;;;0.90;;
41556;SDS011;27720;51.992;5.890;2023-05-20T00:55:01;3.83;;;1.10;;
41556;SDS011;27720;51.992;5.890;2023-05-20T00:57:27;3.00;;;1.38;;
41556;SDS011;27720;51.992;5.890;2023-05-20T00:59:53;5.22;;;1.75;;
41556;SDS011;27720;51.992;5.890;2023-05-20T01:02:22;2.00;;;1.13;;
41556;SDS011;27720;51.992;5.890;2023-05-20T01:04:48;2.92;;;1.45;;
41556;SDS011;27720;51.992;5.890;2023-05-20T01:07:15;2.55;;;1.52;;
41556;SDS011;27720;51.992;5.890;2023-05-20T01:09:41;3.35;;;0.95;;
41556;SDS011;27720;51.992;5.890;2023-05-20T01:14:46;5.80;;;2.08;;
41556;SDS011;27720;51.992;5.890;2023-05-20T01:17:15;2.53;;;1.20;;
41556;SDS011;27720;51.992;5.890;2023-05-20T01:19:45;2.85;;;1.50;;
41556;SDS011;27720;51.992;5.890;2023-05-20T01:22:13;4.05;;;1.60;;
41556;SDS011;27720;51.992;5.890;2023-05-20T01:24:41;4.63;;;1.15;;
41556;SDS011;27720;51.992;5.890;2023-05-20T01:27:09;1.67;;;0.90;;
41556;SDS011;27720;51.992;5.890;2023-05-20T01:29:39;4.85;;;1.13;;
41556;SDS011;27720;51.992;5.890;2023-05-20T01:32:07;3.17;;;1.20;;
41556;SDS011;27720;51.992;5.890;2023-05-20T01:34:41;6.70;;;1.10;;
41556;SDS011;27720;51.992;5.890;2023-05-20T01:37:09;2.22;;;1.33;;
41556;SDS011;27720;51.992;5.890;2023-05-20T01:39:38;2.55;;;1.38;;
41556;SDS011;27720;51.992;5.890;2023-05-20T01:42:06;1.92;;;0.93;;
41556;SDS011;27720;51.992;5.890;2023-05-20T01:44:34;3.40;;;1.10;;
41556;SDS011;27720;51.992;5.890;2023-05-20T01:47:00;1.33;;;1.08;;
41556;SDS011;27720;51.992;5.890;2023-05-20T01:49:25;3.55;;;1.05;;
41556;SDS011;27720;51.992;5.890;2023-05-20T01:51:51;2.95;;;1.23;;
41556;SDS011;27720;51.992;5.890;2023-05-20T01:54:17;2.25;;;1.15;;
41556;SDS011;27720;51.992;5.890;2023-05-20T01:56:44;2.15;;;0.80;;
41556;SDS011;27720;51.992;5.890;2023-05-20T01:59:11;8.00;;;2.05;;
41556;SDS011;27720;51.992;5.890;2023-05-20T02:01:38;2.92;;;1.00;;
41556;SDS011;27720;51.992;5.890;2023-05-20T02:04:03;5.70;;;1.30;;
41556;SDS011;27720;51.992;5.890;2023-05-20T02:06:29;4.88;;;1.45;;
41556;SDS011;27720;51.992;5.890;2023-05-20T02:08:55;3.47;;;1.50;;
41556;SDS011;27720;51.992;5.890;2023-05-20T02:11:21;4.15;;;1.10;;
41556;SDS011;27720;51.992;5.890;2023-05-20T02:13:52;3.75;;;1.25;;
41556;SDS011;27720;51.992;5.890;2023-05-20T02:16:18;2.13;;;1.20;;
41556;SDS011;27720;51.992;5.890;2023-05-20T02:18:44;4.93;;;1.30;;
41556;SDS011;27720;51.992;5.890;2023-05-20T02:23:40;2.58;;;1.35;;
41556;SDS011;27720;51.992;5.890;2023-05-20T02:26:06;2.35;;;1.33;;
41556;SDS011;27720;51.992;5.890;2023-05-20T02:28:35;2.90;;;0.90;;
41556;SDS011;27720;51.992;5.890;2023-05-20T02:31:04;3.30;;;1.15;;
41556;SDS011;27720;51.992;5.890;2023-05-20T02:33:32;2.85;;;1.10;;
41556;SDS011;27720;51.992;5.890;2023-05-20T02:35:59;1.35;;;1.10;;
41556;SDS011;27720;51.992;5.890;2023-05-20T02:38:24;2.97;;;0.98;;
41556;SDS011;27720;51.992;5.890;2023-05-20T02:40:50;2.63;;;1.15;;
41556;SDS011;27720;51.992;5.890;2023-05-20T02:43:16;2.75;;;1.10;;
41556;SDS011;27720;51.992;5.890;2023-05-20T02:45:42;5.93;;;0.95;;
41556;SDS011;27720;51.992;5.890;2023-05-20T02:48:07;4.47;;;1.40;;
41556;SDS011;27720;51.992;5.890;2023-05-20T02:50:37;2.00;;;1.42;;
41556;SDS011;27720;51.992;5.890;2023-05-20T02:53:04;2.13;;;1.38;;
41556;SDS011;27720;51.992;5.890;2023-05-20T02:55:32;3.20;;;1.20;;
41556;SDS011;27720;51.992;5.890;2023-05-20T02:57:59;2.40;;;1.20;;
41556;SDS011;27720;51.992;5.890;2023-05-20T03:00:25;4.03;;;1.38;;
41556;SDS011;27720;51.992;5.890;2023-05-20T03:02:52;6.15;;;1.45;;
41556;SDS011;27720;51.992;5.890;2023-05-20T03:05:18;3.42;;;1.23;;
41556;SDS011;27720;51.992;5.890;2023-05-20T03:07:44;2.05;;;0.82;;
41556;SDS011;27720;51.992;5.890;2023-05-20T03:10:10;3.85;;;1.30;;
41556;SDS011;27720;51.992;5.890;2023-05-20T03:12:38;2.47;;;1.50;;
41556;SDS011;27720;51.992;5.890;2023-05-20T03:15:04;3.25;;;1.20;;
41556;SDS011;27720;51.992;5.890;2023-05-20T03:17:30;1.55;;;0.93;;
41556;SDS011;27720;51.992;5.890;2023-05-20T03:19:56;2.80;;;1.17;;
41556;SDS011;27720;51.992;5.890;2023-05-20T03:22:22;5.30;;;1.20;;
41556;SDS011;27720;51.992;5.890;2023-05-20T03:24:47;2.40;;;1.30;;
41556;SDS011;27720;51.992;5.890;2023-05-20T03:27:13;2.20;;;0.90;;
41556;SDS011;27720;51.992;5.890;2023-05-20T03:29:39;2.58;;;1.30;;
41556;SDS011;27720;51.992;5.890;2023-05-20T03:32:05;2.35;;;1.20;;
41556;SDS011;27720;51.992;5.890;2023-05-20T03:34:31;1.80;;;1.00;;
41556;SDS011;27720;51.992;5.890;2023-05-20T03:36:57;3.17;;;1.10;;
41556;SDS011;27720;51.992;5.890;2023-05-20T03:39:24;3.63;;;1.33;;
41556;SDS011;27720;51.992;5.890;2023-05-20T03:41:50;1.17;;;0.70;;
41556;SDS011;27720;51.992;5.890;2023-05-20T03:44:16;2.35;;;1.35;;
41556;SDS011;27720;51.992;5.890;2023-05-20T03:46:41;1.83;;;0.90;;
41556;SDS011;27720;51.992;5.890;2023-05-20T03:49:07;4.30;;;1.17;;
41556;SDS011;27720;51.992;5.890;2023-05-20T03:51:33;3.05;;;1.23;;
41556;SDS011;27720;51.992;5.890;2023-05-20T03:54:04;4.82;;;1.40;;
41556;SDS011;27720;51.992;5.890;2023-05-20T03:56:30;3.05;;;1.00;;
41556;SDS011;27720;51.992;5.890;2023-05-20T03:58:56;1.58;;;0.80;;
41556;SDS011;27720;51.992;5.890;2023-05-20T04:01:22;3.10;;;1.00;;
41556;SDS011;27720;51.992;5.890;2023-05-20T04:03:50;2.65;;;1.30;;
41556;SDS011;27720;51.992;5.890;2023-05-20T04:06:15;2.85;;;1.23;;
41556;SDS011;27720;51.992;5.890;2023-05-20T04:08:41;3.00;;;1.05;;
41556;SDS011;27720;51.992;5.890;2023-05-20T04:11:07;2.28;;;1.05;;
41556;SDS011;27720;51.992;5.890;2023-05-20T04:13:33;1.73;;;1.05;;
41556;SDS011;27720;51.992;5.890;2023-05-20T04:15:59;3.22;;;1.70;;
41556;SDS011;27720;51.992;5.890;2023-05-20T04:18:27;3.65;;;1.35;;
41556;SDS011;27720;51.992;5.890;2023-05-20T04:20:56;2.65;;;1.42;;
41556;SDS011;27720;51.992;5.890;2023-05-20T04:23:22;3.58;;;1.30;;
41556;SDS011;27720;51.992;5.890;2023-05-20T04:25:48;2.40;;;1.08;;
41556;SDS011;27720;51.992;5.890;2023-05-20T04:28:13;3.83;;;1.02;;
41556;SDS011;27720;51.992;5.890;2023-05-20T04:30:41;2.42;;;0.98;;
41556;SDS011;27720;51.992;5.890;2023-05-20T04:33:09;2.42;;;1.00;;
41556;SDS011;27720;51.992;5.890;2023-05-20T04:35:36;5.90;;;1.70;;
41556;SDS011;27720;51.992;5.890;2023-05-20T04:38:06;3.20;;;1.50;;
41556;SDS011;27720;51.992;5.890;2023-05-20T04:40:32;2.38;;;1.15;;
41556;SDS011;27720;51.992;5.890;2023-05-20T04:42:58;2.63;;;1.20;;
41556;SDS011;27720;51.992;5.890;2023-05-20T04:45:24;2.63;;;1.23;;
41556;SDS011;27720;51.992;5.890;2023-05-20T04:47:50;2.63;;;1.35;;
41556;SDS011;27720;51.992;5.890;2023-05-20T04:50:17;2.95;;;1.13;;
41556;SDS011;27720;51.992;5.890;2023-05-20T04:52:43;2.63;;;0.95;;
41556;SDS011;27720;51.992;5.890;2023-05-20T04:55:10;3.55;;;2.05;;
41556;SDS011;27720;51.992;5.890;2023-05-20T04:57:37;3.15;;;0.93;;
41556;SDS011;27720;51.992;5.890;2023-05-20T05:00:06;3.08;;;1.25;;
41556;SDS011;27720;51.992;5.890;2023-05-20T05:02:33;3.53;;;1.30;;
41556;SDS011;27720;51.992;5.890;2023-05-20T05:05:00;2.63;;;1.00;;
41556;SDS011;27720;51.992;5.890;2023-05-20T05:07:26;4.57;;;1.27;;
41556;SDS011;27720;51.992;5.890;2023-05-20T05:09:52;2.38;;;1.23;;
41556;SDS011;27720;51.992;5.890;2023-05-20T05:12:17;2.20;;;1.00;;
41556;SDS011;27720;51.992;5.890;2023-05-20T05:14:43;3.22;;;1.35;;
41556;SDS011;27720;51.992;5.890;2023-05-20T05:17:09;1.98;;;0.85;;
41556;SDS011;27720;51.992;5.890;2023-05-20T05:19:35;4.00;;;1.45;;
41556;SDS011;27720;51.992;5.890;2023-05-20T05:22:01;2.92;;;1.25;;
41556;SDS011;27720;51.992;5.890;2023-05-20T05:24:28;3.00;;;1.30;;
41556;SDS011;27720;51.992;5.890;2023-05-20T05:26:54;4.00;;;0.90;;
41556;SDS011;27720;51.992;5.890;2023-05-20T05:29:20;4.30;;;1.05;;
41556;SDS011;27720;51.992;5.890;2023-05-20T05:31:47;2.72;;;1.10;;
41556;SDS011;27720;51.992;5.890;2023-05-20T05:34:12;2.47;;;1.35;;
41556;SDS011;27720;51.992;5.890;2023-05-20T05:36:38;2.63;;;1.23;;
41556;SDS011;27720;51.992;5.890;2023-05-20T05:39:05;3.17;;;1.27;;
41556;SDS011;27720;51.992;5.890;2023-05-20T05:41:31;2.40;;;1.25;;
41556;SDS011;27720;51.992;5.890;2023-05-20T05:43:58;1.23;;;0.80;;
41556;SDS011;27720;51.992;5.890;2023-05-20T05:46:25;2.10;;;0.80;;
41556;SDS011;27720;51.992;5.890;2023-05-20T05:48:51;2.30;;;1.00;;
41556;SDS011;27720;51.992;5.890;2023-05-20T05:51:17;2.10;;;0.77;;
41556;SDS011;27720;51.992;5.890;2023-05-20T05:53:43;2.55;;;1.00;;
41556;SDS011;27720;51.992;5.890;2023-05-20T05:56:09;1.92;;;0.90;;
41556;SDS011;27720;51.992;5.890;2023-05-20T05:58:35;1.75;;;0.90;;
41556;SDS011;27720;51.992;5.890;2023-05-20T06:01:04;1.20;;;0.80;;
41556;SDS011;27720;51.992;5.890;2023-05-20T06:03:30;1.45;;;0.80;;
41556;SDS011;27720;51.992;5.890;2023-05-20T06:05:56;2.55;;;0.90;;
41556;SDS011;27720;51.992;5.890;2023-05-20T06:08:22;2.03;;;1.02;;
41556;SDS011;27720;51.992;5.890;2023-05-20T06:10:48;2.92;;;0.80;;
41556;SDS011;27720;51.992;5.890;2023-05-20T06:13:15;4.32;;;1.02;;
41556;SDS011;27720;51.992;5.890;2023-05-20T06:15:41;1.38;;;0.80;;
41556;SDS011;27720;51.992;5.890;2023-05-20T06:18:10;2.15;;;1.15;;
41556;SDS011;27720;51.992;5.890;2023-05-20T06:20:37;1.42;;;0.80;;
41556;SDS011;27720;51.992;5.890;2023-05-20T06:23:03;3.90;;;1.20;;
41556;SDS011;27720;51.992;5.890;2023-05-20T06:25:37;4.40;;;1.10;;
41556;SDS011;27720;51.992;5.890;2023-05-20T06:28:03;2.63;;;0.93;;
41556;SDS011;27720;51.992;5.890;2023-05-20T06:30:30;3.00;;;1.38;;
41556;SDS011;27720;51.992;5.890;2023-05-20T06:32:59;1.92;;;0.98;;
41556;SDS011;27720;51.992;5.890;2023-05-20T06:35:24;2.65;;;1.00;;
41556;SDS011;27720;51.992;5.890;2023-05-20T06:37:50;2.42;;;0.70;;
41556;SDS011;27720;51.992;5.890;2023-05-20T06:40:19;1.58;;;0.80;;
41556;SDS011;27720;51.992;5.890;2023-05-20T06:42:45;1.75;;;0.70;;
41556;SDS011;27720;51.992;5.890;2023-05-20T06:45:12;3.03;;;0.77;;
41556;SDS011;27720;51.992;5.890;2023-05-20T06:47:47;1.27;;;0.75;;
41556;SDS011;27720;51.992;5.890;2023-05-20T06:50:14;2.45;;;0.68;;
41556;SDS011;27720;51.992;5.890;2023-05-20T06:52:39;3.22;;;1.02;;
41556;SDS011;27720;51.992;5.890;2023-05-20T06:55:06;1.05;;;0.45;;
41556;SDS011;27720;51.992;5.890;2023-05-20T06:57:33;3.10;;;0.65;;
41556;SDS011;27720;51.992;5.890;2023-05-20T06:59:59;1.70;;;0.63;;
41556;SDS011;27720;51.992;5.890;2023-05-20T07:02:25;2.55;;;0.80;;
41556;SDS011;27720;51.992;5.890;2023-05-20T07:04:51;2.97;;;0.82;;
41556;SDS011;27720;51.992;5.890;2023-05-20T07:07:17;2.03;;;0.80;;
41556;SDS011;27720;51.992;5.890;2023-05-20T07:09:47;4.15;;;0.80;;
41556;SDS011;27720;51.992;5.890;2023-05-20T07:12:14;1.95;;;0.55;;
41556;SDS011;27720;51.992;5.890;2023-05-20T07:14:41;0.80;;;0.55;;
41556;SDS011;27720;51.992;5.890;2023-05-20T07:17:07;1.65;;;0.70;;
41556;SDS011;27720;51.992;5.890;2023-05-20T07:19:33;1.33;;;0.60;;
41556;SDS011;27720;51.992;5.890;2023-05-20T07:21:59;1.38;;;0.60;;
41556;SDS011;27720;51.992;5.890;2023-05-20T07:24:44;1.75;;;0.70;;
41556;SDS011;27720;51.992;5.890;2023-05-20T07:27:10;1.58;;;0.70;;
41556;SDS011;27720;51.992;5.890;2023-05-20T07:29:37;2.45;;;1.02;;
41556;SDS011;27720;51.992;5.890;2023-05-20T07:32:03;2.13;;;0.93;;
41556;SDS011;27720;51.992;5.890;2023-05-20T07:34:29;4.10;;;0.98;;
41556;SDS011;27720;51.992;5.890;2023-05-20T07:36:55;2.13;;;1.00;;
41556;SDS011;27720;51.992;5.890;2023-05-20T07:39:22;1.77;;;0.90;;
41556;SDS011;27720;51.992;5.890;2023-05-20T07:41:48;2.53;;;1.25;;
41556;SDS011;27720;51.992;5.890;2023-05-20T07:44:14;1.90;;;1.02;;
41556;SDS011;27720;51.992;5.890;2023-05-20T07:49:10;2.65;;;0.98;;
41556;SDS011;27720;51.992;5.890;2023-05-20T07:51:37;3.60;;;0.70;;
41556;SDS011;27720;51.992;5.890;2023-05-20T07:54:04;3.13;;;0.60;;
41556;SDS011;27720;51.992;5.890;2023-05-20T07:56:30;3.30;;;1.10;;
41556;SDS011;27720;51.992;5.890;2023-05-20T07:58:57;1.92;;;0.93;;
41556;SDS011;27720;51.992;5.890;2023-05-20T08:01:27;1.75;;;1.00;;
41556;SDS011;27720;51.992;5.890;2023-05-20T08:03:54;3.30;;;0.85;;
41556;SDS011;27720;51.992;5.890;2023-05-20T08:06:22;5.28;;;1.00;;
41556;SDS011;27720;51.992;5.890;2023-05-20T08:08:51;2.55;;;0.90;;
41556;SDS011;27720;51.992;5.890;2023-05-20T08:11:26;3.17;;;0.90;;
41556;SDS011;27720;51.992;5.890;2023-05-20T08:13:52;2.10;;;1.00;;
41556;SDS011;27720;51.992;5.890;2023-05-20T08:16:20;5.30;;;0.93;;
41556;SDS011;27720;51.992;5.890;2023-05-20T08:18:46;2.05;;;0.85;;
41556;SDS011;27720;51.992;5.890;2023-05-20T08:21:13;2.70;;;1.17;;
41556;SDS011;27720;51.992;5.890;2023-05-20T08:23:39;2.80;;;1.02;;
41556;SDS011;27720;51.992;5.890;2023-05-20T08:26:05;2.33;;;1.15;;
41556;SDS011;27720;51.992;5.890;2023-05-20T08:28:33;1.92;;;0.73;;
41556;SDS011;27720;51.992;5.890;2023-05-20T08:31:00;2.03;;;0.90;;
41556;SDS011;27720;51.992;5.890;2023-05-20T08:33:28;1.40;;;0.80;;
41556;SDS011;27720;51.992;5.890;2023-05-20T08:35:57;1.92;;;1.05;;
41556;SDS011;27720;51.992;5.890;2023-05-20T08:38:22;1.27;;;0.70;;
41556;SDS011;27720;51.992;5.890;2023-05-20T08:40:55;1.50;;;0.70;;
41556;SDS011;27720;51.992;5.890;2023-05-20T08:43:22;1.13;;;0.80;;
41556;SDS011;27720;51.992;5.890;2023-05-20T08:45:48;2.50;;;0.82;;
41556;SDS011;27720;51.992;5.890;2023-05-20T08:48:17;1.58;;;0.70;;
41556;SDS011;27720;51.992;5.890;2023-05-20T08:50:51;2.35;;;0.77;;
41556;SDS011;27720;51.992;5.890;2023-05-20T08:53:17;2.60;;;0.73;;
41556;SDS011;27720;51.992;5.890;2023-05-20T08:55:48;1.83;;;0.88;;
41556;SDS011;27720;51.992;5.890;2023-05-20T08:58:20;2.10;;;0.70;;
41556;SDS011;27720;51.992;5.890;2023-05-20T09:00:46;2.63;;;1.00;;
41556;SDS011;27720;51.992;5.890;2023-05-20T09:03:11;3.05;;;0.80;;
41556;SDS011;27720;51.992;5.890;2023-05-20T09:05:37;2.42;;;0.90;;
41556;SDS011;27720;51.992;5.890;2023-05-20T09:08:03;2.90;;;1.00;;
41556;SDS011;27720;51.992;5.890;2023-05-20T09:10:32;1.23;;;0.68;;
41556;SDS011;27720;51.992;5.890;2023-05-20T09:12:59;5.10;;;0.85;;
41556;SDS011;27720;51.992;5.890;2023-05-20T09:15:26;1.65;;;0.68;;
41556;SDS011;27720;51.992;5.890;2023-05-20T09:17:52;1.50;;;0.55;;
41556;SDS011;27720;51.992;5.890;2023-05-20T09:20:20;0.90;;;0.55;;
41556;SDS011;27720;51.992;5.890;2023-05-20T09:22:46;1.00;;;0.68;;
41556;SDS011;27720;51.992;5.890;2023-05-20T09:25:19;1.95;;;0.70;;
41556;SDS011;27720;51.992;5.890;2023-05-20T09:27:45;2.40;;;0.77;;
41556;SDS011;27720;51.992;5.890;2023-05-20T09:30:11;1.67;;;0.90;;
41556;SDS011;27720;51.992;5.890;2023-05-20T09:32:38;0.95;;;0.47;;
41556;SDS011;27720;51.992;5.890;2023-05-20T09:35:06;0.93;;;0.60;;
41556;SDS011;27720;51.992;5.890;2023-05-20T09:37:33;1.05;;;0.50;;
41556;SDS011;27720;51.992;5.890;2023-05-20T09:40:00;1.33;;;0.60;;
41556;SDS011;27720;51.992;5.890;2023-05-20T09:42:37;1.50;;;0.70;;
41556;SDS011;27720;51.992;5.890;2023-05-20T09:45:06;4.10;;;0.77;;
41556;SDS011;27720;51.992;5.890;2023-05-20T09:47:37;1.50;;;0.75;;
41556;SDS011;27720;51.992;5.890;2023-05-20T09:50:05;1.25;;;0.70;;
41556;SDS011;27720;51.992;5.890;2023-05-20T09:52:34;2.80;;;0.50;;
41556;SDS011;27720;51.992;5.890;2023-05-20T09:55:01;1.48;;;0.60;;
41556;SDS011;27720;51.992;5.890;2023-05-20T09:59:58;2.30;;;0.73;;
41556;SDS011;27720;51.992;5.890;2023-05-20T10:02:24;4.53;;;0.70;;
41556;SDS011;27720;51.992;5.890;2023-05-20T10:04:50;1.23;;;0.60;;
41556;SDS011;27720;51.992;5.890;2023-05-20T10:15:06;1.85;;;0.68;;
41556;SDS011;27720;51.992;5.890;2023-05-20T10:17:47;2.70;;;0.60;;
41556;SDS011;27720;51.992;5.890;2023-05-20T10:20:25;2.10;;;0.50;;
41556;SDS011;27720;51.992;5.890;2023-05-20T10:22:55;1.85;;;0.80;;
41556;SDS011;27720;51.992;5.890;2023-05-20T10:25:27;2.08;;;0.65;;
41556;SDS011;27720;51.992;5.890;2023-05-20T10:28:06;1.15;;;0.68;;
41556;SDS011;27720;51.992;5.890;2023-05-20T10:30:33;1.20;;;0.52;;
41556;SDS011;27720;51.992;5.890;2023-05-20T10:33:02;0.65;;;0.35;;
41556;SDS011;27720;51.992;5.890;2023-05-20T10:35:29;1.67;;;0.70;;
41556;SDS011;27720;51.992;5.890;2023-05-20T10:38:05;1.77;;;0.80;;
41556;SDS011;27720;51.992;5.890;2023-05-20T10:40:33;1.15;;;0.40;;
41556;SDS011;27720;51.992;5.890;2023-05-20T10:43:07;1.08;;;0.60;;
41556;SDS011;27720;51.992;5.890;2023-05-20T10:45:51;0.82;;;0.40;;
41556;SDS011;27720;51.992;5.890;2023-05-20T10:48:27;1.08;;;0.47;;
41556;SDS011;27720;51.992;5.890;2023-05-20T10:50:59;1.60;;;0.70;;
41556;SDS011;27720;51.992;5.890;2023-05-20T10:53:29;2.33;;;0.45;;
41556;SDS011;27720;51.992;5.890;2023-05-20T10:56:02;1.02;;;0.50;;
41556;SDS011;27720;51.992;5.890;2023-05-20T10:58:35;1.17;;;0.57;;
41556;SDS011;27720;51.992;5.890;2023-05-20T11:01:02;1.17;;;0.70;;
41556;SDS011;27720;51.992;5.890;2023-05-20T11:03:28;1.60;;;0.85;;
41556;SDS011;27720;51.992;5.890;2023-05-20T11:05:55;2.38;;;0.52;;
41556;SDS011;27720;51.992;5.890;2023-05-20T11:08:21;2.08;;;0.73;;
41556;SDS011;27720;51.992;5.890;2023-05-20T11:10:46;3.30;;;0.85;;
41556;SDS011;27720;51.992;5.890;2023-05-20T11:13:12;2.75;;;0.65;;
41556;SDS011;27720;51.992;5.890;2023-05-20T11:15:39;2.15;;;0.50;;
41556;SDS011;27720;51.992;5.890;2023-05-20T11:18:06;1.10;;;0.70;;
41556;SDS011;27720;51.992;5.890;2023-05-20T11:20:32;1.20;;;0.52;;
41556;SDS011;27720;51.992;5.890;2023-05-20T11:23:04;1.23;;;0.50;;
41556;SDS011;27720;51.992;5.890;2023-05-20T11:25:31;3.55;;;0.75;;
41556;SDS011;27720;51.992;5.890;2023-05-20T11:27:58;1.15;;;0.45;;
41556;SDS011;27720;51.992;5.890;2023-05-20T11:30:23;0.88;;;0.47;;
41556;SDS011;27720;51.992;5.890;2023-05-20T11:32:59;1.73;;;0.52;;
41556;SDS011;27720;51.992;5.890;2023-05-20T11:35:27;0.88;;;0.40;;
41556;SDS011;27720;51.992;5.890;2023-05-20T11:38:00;0.70;;;0.40;;
41556;SDS011;27720;51.992;5.890;2023-05-20T11:40:30;1.05;;;0.50;;
41556;SDS011;27720;51.992;5.890;2023-05-20T11:43:01;1.27;;;0.50;;
41556;SDS011;27720;51.992;5.890;2023-05-20T11:45:37;2.72;;;0.85;;
41556;SDS011;27720;51.992;5.890;2023-05-20T11:48:17;1.58;;;0.60;;
41556;SDS011;27720;51.992;5.890;2023-05-20T11:50:44;1.40;;;0.50;;
41556;SDS011;27720;51.992;5.890;2023-05-20T11:53:17;1.40;;;0.47;;
41556;SDS011;27720;51.992;5.890;2023-05-20T11:55:47;1.15;;;0.60;;
41556;SDS011;27720;51.992;5.890;2023-05-20T11:58:17;0.65;;;0.30;;
41556;SDS011;27720;51.992;5.890;2023-05-20T12:00:44;1.45;;;0.70;;
41556;SDS011;27720;51.992;5.890;2023-05-20T12:03:10;1.13;;;0.60;;
41556;SDS011;27720;51.992;5.890;2023-05-20T12:05:36;0.65;;;0.35;;
41556;SDS011;27720;51.992;5.890;2023-05-20T12:08:03;0.32;;;0.30;;
41556;SDS011;27720;51.992;5.890;2023-05-20T12:10:29;1.05;;;0.52;;
41556;SDS011;27720;51.992;5.890;2023-05-20T12:12:55;1.33;;;0.50;;
41556;SDS011;27720;51.992;5.890;2023-05-20T12:15:21;0.88;;;0.50;;
41556;SDS011;27720;51.992;5.890;2023-05-20T12:17:47;0.55;;;0.40;;
41556;SDS011;27720;51.992;5.890;2023-05-20T12:20:15;0.95;;;0.50;;
41556;SDS011;27720;51.992;5.890;2023-05-20T12:22:42;1.00;;;0.50;;
41556;SDS011;27720;51.992;5.890;2023-05-20T12:25:13;0.95;;;0.60;;
41556;SDS011;27720;51.992;5.890;2023-05-20T12:27:40;0.93;;;0.43;;
41556;SDS011;27720;51.992;5.890;2023-05-20T12:30:07;1.25;;;0.70;;
41556;SDS011;27720;51.992;5.890;2023-05-20T12:32:34;1.45;;;0.60;;
41556;SDS011;27720;51.992;5.890;2023-05-20T12:35:03;0.83;;;0.43;;
41556;SDS011;27720;51.992;5.890;2023-05-20T12:37:29;1.58;;;0.50;;
41556;SDS011;27720;51.992;5.890;2023-05-20T12:39:55;1.63;;;0.60;;
41556;SDS011;27720;51.992;5.890;2023-05-20T12:42:21;1.17;;;0.75;;
41556;SDS011;27720;51.992;5.890;2023-05-20T12:44:46;0.70;;;0.43;;
41556;SDS011;27720;51.992;5.890;2023-05-20T12:47:12;1.63;;;0.60;;
41556;SDS011;27720;51.992;5.890;2023-05-20T12:49:38;2.08;;;0.40;;
41556;SDS011;27720;51.992;5.890;2023-05-20T12:52:03;0.85;;;0.40;;
41556;SDS011;27720;51.992;5.890;2023-05-20T12:54:29;0.90;;;0.50;;
41556;SDS011;27720;51.992;5.890;2023-05-20T12:56:55;0.93;;;0.30;;
41556;SDS011;27720;51.992;5.890;2023-05-20T12:59:21;0.85;;;0.47;;
41556;SDS011;27720;51.992;5.890;2023-05-20T13:01:47;1.40;;;0.40;;
41556;SDS011;27720;51.992;5.890;2023-05-20T13:04:12;0.80;;;0.50;;
41556;SDS011;27720;51.992;5.890;2023-05-20T13:06:38;1.70;;;0.50;;
41556;SDS011;27720;51.992;5.890;2023-05-20T13:09:04;1.02;;;0.45;;
41556;SDS011;27720;51.992;5.890;2023-05-20T13:11:29;1.15;;;0.45;;
41556;SDS011;27720;51.992;5.890;2023-05-20T13:13:55;3.15;;;0.50;;
41556;SDS011;27720;51.992;5.890;2023-05-20T13:16:21;1.73;;;0.40;;
41556;SDS011;27720;51.992;5.890;2023-05-20T13:18:50;0.63;;;0.47;;
41556;SDS011;27720;51.992;5.890;2023-05-20T13:21:16;1.00;;;0.57;;
41556;SDS011;27720;51.992;5.890;2023-05-20T13:23:42;1.40;;;0.63;;
41556;SDS011;27720;51.992;5.890;2023-05-20T13:26:08;2.50;;;1.48;;
41556;SDS011;27720;51.992;5.890;2023-05-20T13:28:34;1.30;;;0.55;;
41556;SDS011;27720;51.992;5.890;2023-05-20T13:31:01;2.13;;;0.50;;
41556;SDS011;27720;51.992;5.890;2023-05-20T13:33:30;1.33;;;0.60;;
41556;SDS011;27720;51.992;5.890;2023-05-20T13:35:56;0.73;;;0.50;;
41556;SDS011;27720;51.992;5.890;2023-05-20T13:38:22;2.70;;;0.70;;
41556;SDS011;27720;51.992;5.890;2023-05-20T13:40:47;0.98;;;0.60;;
41556;SDS011;27720;51.992;5.890;2023-05-20T13:43:13;1.20;;;0.60;;
41556;SDS011;27720;51.992;5.890;2023-05-20T13:45:39;1.35;;;0.65;;
41556;SDS011;27720;51.992;5.890;2023-05-20T13:48:06;1.33;;;0.70;;
41556;SDS011;27720;51.992;5.890;2023-05-20T13:50:31;2.10;;;0.70;;
41556;SDS011;27720;51.992;5.890;2023-05-20T13:52:57;2.33;;;0.60;;
41556;SDS011;27720;51.992;5.890;2023-05-20T13:55:23;0.77;;;0.57;;
41556;SDS011;27720;51.992;5.890;2023-05-20T13:57:48;1.65;;;0.45;;
41556;SDS011;27720;51.992;5.890;2023-05-20T14:00:19;1.13;;;0.60;;
41556;SDS011;27720;51.992;5.890;2023-05-20T14:02:45;3.28;;;0.60;;
41556;SDS011;27720;51.992;5.890;2023-05-20T14:05:11;1.20;;;0.50;;
41556;SDS011;27720;51.992;5.890;2023-05-20T14:07:37;0.70;;;0.40;;
41556;SDS011;27720;51.992;5.890;2023-05-20T14:10:03;1.17;;;0.50;;
41556;SDS011;27720;51.992;5.890;2023-05-20T14:12:30;1.92;;;0.68;;
41556;SDS011;27720;51.992;5.890;2023-05-20T14:14:55;0.80;;;0.40;;
41556;SDS011;27720;51.992;5.890;2023-05-20T14:17:21;1.02;;;0.50;;
41556;SDS011;27720;51.992;5.890;2023-05-20T14:19:47;0.93;;;0.55;;
41556;SDS011;27720;51.992;5.890;2023-05-20T14:22:13;1.63;;;0.60;;
41556;SDS011;27720;51.992;5.890;2023-05-20T14:24:39;2.25;;;0.50;;
41556;SDS011;27720;51.992;5.890;2023-05-20T14:27:05;1.35;;;0.60;;
41556;SDS011;27720;51.992;5.890;2023-05-20T14:29:31;1.95;;;0.68;;
41556;SDS011;27720;51.992;5.890;2023-05-20T14:31:57;1.45;;;0.55;;
41556;SDS011;27720;51.992;5.890;2023-05-20T14:34:22;0.88;;;0.50;;
41556;SDS011;27720;51.992;5.890;2023-05-20T14:36:48;2.42;;;0.52;;
41556;SDS011;27720;51.992;5.890;2023-05-20T14:39:13;0.98;;;0.52;;
41556;SDS011;27720;51.992;5.890;2023-05-20T14:41:39;0.80;;;0.45;;
41556;SDS011;27720;51.992;5.890;2023-05-20T14:44:05;1.60;;;0.65;;
41556;SDS011;27720;51.992;5.890;2023-05-20T14:46:30;1.67;;;0.60;;
41556;SDS011;27720;51.992;5.890;2023-05-20T14:48:59;1.98;;;0.60;;
41556;SDS011;27720;51.992;5.890;2023-05-20T14:51:25;2.47;;;0.50;;
41556;SDS011;27720;51.992;5.890;2023-05-20T14:53:51;1.00;;;0.40;;
41556;SDS011;27720;51.992;5.890;2023-05-20T14:56:17;1.33;;;0.50;;
41556;SDS011;27720;51.992;5.890;2023-05-20T14:58:42;0.73;;;0.47;;
41556;SDS011;27720;51.992;5.890;2023-05-20T15:01:08;0.88;;;0.50;;
41556;SDS011;27720;51.992;5.890;2023-05-20T15:03:34;1.75;;;0.60;;
41556;SDS011;27720;51.992;5.890;2023-05-20T15:05:59;1.05;;;0.70;;